createdAt,value
2023-01-29T00:02:20.991Z,14.40
2023-01-29T00:04:49.130Z,13.53
2023-01-29T00:07:17.317Z,15.07
2023-01-29T00:09:45.290Z,13.10
2023-01-29T00:12:13.226Z,13.33
2023-01-29T00:14:41.295Z,13.83
2023-01-29T00:17:10.298Z,13.80
2023-01-29T00:19:39.675Z,13.50
2023-01-29T00:22:07.620Z,13.63
2023-01-29T00:24:35.725Z,14.50
2023-01-29T00:27:03.693Z,14.03
2023-01-29T00:29:31.788Z,15.57
2023-01-29T00:32:00.054Z,15.33
2023-01-29T00:34:28.178Z,14.67
2023-01-29T00:37:04.753Z,14.23
2023-01-29T00:39:47.388Z,14.63
2023-01-29T00:42:33.560Z,14.63
2023-01-29T00:45:01.562Z,15.17
2023-01-29T00:47:33.561Z,14.77
2023-01-29T00:50:02.469Z,13.87
2023-01-29T00:52:32.155Z,13.77
2023-01-29T00:55:01.780Z,12.07
2023-01-29T00:57:31.545Z,11.80
2023-01-29T00:59:59.915Z,11.47
2023-01-29T01:02:45.953Z,11.70
2023-01-29T01:05:18.844Z,12.07
2023-01-29T01:07:49.844Z,11.03
2023-01-29T01:10:22.190Z,11.90
2023-01-29T01:12:53.528Z,11.53
2023-01-29T01:15:22.753Z,11.63
2023-01-29T01:17:54.268Z,11.37
2023-01-29T01:20:23.440Z,11.47
2023-01-29T01:22:55.760Z,11.20
2023-01-29T01:25:24.502Z,11.40
2023-01-29T01:27:53.853Z,11.77
2023-01-29T01:30:22.476Z,10.37
2023-01-29T01:32:50.808Z,10.90
2023-01-29T01:35:19.547Z,11.60
2023-01-29T01:37:47.742Z,10.03
2023-01-29T01:40:19.758Z,10.73
2023-01-29T01:42:49.709Z,11.70
2023-01-29T01:45:24.257Z,10.93
2023-01-29T01:47:57.304Z,11.03
2023-01-29T01:50:30.653Z,11.70
2023-01-29T01:53:03.476Z,11.57
2023-01-29T01:55:35.545Z,10.80
2023-01-29T01:58:10.773Z,11.50
2023-01-29T02:00:40.925Z,9.90
2023-01-29T02:03:28.337Z,10.90
2023-01-29T02:06:15.540Z,10.53
2023-01-29T02:09:06.589Z,10.73
2023-01-29T02:11:38.386Z,10.40
2023-01-29T02:14:06.409Z,10.13
2023-01-29T02:16:36.500Z,10.93
2023-01-29T02:19:09.956Z,10.57
2023-01-29T02:22:06.475Z,10.60
2023-01-29T02:25:10.845Z,10.20
2023-01-29T02:28:14.024Z,10.13
2023-01-29T02:30:47.114Z,10.20
2023-01-29T02:33:23.916Z,10.93
2023-01-29T02:36:00.400Z,9.87
2023-01-29T02:38:36.222Z,10.80
2023-01-29T02:41:10.486Z,10.67
2023-01-29T02:43:47.513Z,10.67
2023-01-29T02:46:22.373Z,9.57
2023-01-29T02:49:00.729Z,10.07
2023-01-29T02:51:35.951Z,9.87
2023-01-29T02:54:07.227Z,10.80
2023-01-29T02:56:41.178Z,11.07
2023-01-29T02:59:17.498Z,10.20
2023-01-29T03:01:51.268Z,10.40
2023-01-29T03:04:23.910Z,9.27
2023-01-29T03:06:56.444Z,11.73
2023-01-29T03:09:31.156Z,10.40
2023-01-29T03:12:19.823Z,9.60
2023-01-29T03:15:10.085Z,9.73
2023-01-29T03:17:42.976Z,9.97
2023-01-29T03:20:15.893Z,10.13
2023-01-29T03:22:50.660Z,9.33
2023-01-29T03:25:39.298Z,10.07
2023-01-29T03:28:26.963Z,10.00
2023-01-29T03:31:22.009Z,10.03
2023-01-29T03:34:01.566Z,10.07
2023-01-29T03:36:38.320Z,10.07
2023-01-29T03:39:07.564Z,10.47
2023-01-29T03:41:39.771Z,9.27
2023-01-29T03:44:15.604Z,10.07
2023-01-29T03:46:52.427Z,10.27
2023-01-29T03:49:28.423Z,10.33
2023-01-29T03:52:02.256Z,10.13
2023-01-29T03:54:40.413Z,9.90
2023-01-29T03:57:17.362Z,9.70
2023-01-29T03:59:54.775Z,9.87
2023-01-29T04:02:48.731Z,10.13
2023-01-29T04:05:21.298Z,10.07
2023-01-29T04:08:15.702Z,10.03
2023-01-29T04:10:46.379Z,9.07
2023-01-29T04:13:16.914Z,10.47
2023-01-29T04:15:51.479Z,10.10
2023-01-29T04:18:26.830Z,10.23
2023-01-29T04:21:08.245Z,10.40
2023-01-29T04:23:36.970Z,10.73
2023-01-29T04:26:26.147Z,10.50
2023-01-29T04:29:05.351Z,10.23
2023-01-29T04:31:39.420Z,10.30
2023-01-29T04:34:20.271Z,10.50
2023-01-29T04:36:57.387Z,10.30
2023-01-29T04:39:33.055Z,10.50
2023-01-29T04:42:08.386Z,12.00
2023-01-29T04:44:44.761Z,11.57
2023-01-29T04:47:22.514Z,11.20
2023-01-29T04:50:00.312Z,10.57
2023-01-29T04:52:39.960Z,11.57
2023-01-29T04:55:16.817Z,10.33
2023-01-29T04:57:51.898Z,10.80
2023-01-29T05:00:24.057Z,9.40
2023-01-29T05:02:52.551Z,10.10
2023-01-29T05:05:22.684Z,9.73
2023-01-29T05:07:51.503Z,9.07
2023-01-29T05:10:21.555Z,9.20
2023-01-29T05:12:56.204Z,9.13
2023-01-29T05:15:27.627Z,9.00
2023-01-29T05:18:01.866Z,9.33
2023-01-29T05:20:33.635Z,9.10
2023-01-29T05:23:01.760Z,9.17
2023-01-29T05:25:32.502Z,8.50
2023-01-29T05:28:05.791Z,9.60
2023-01-29T05:30:36.252Z,9.60
2023-01-29T05:33:04.874Z,9.03
2023-01-29T05:35:34.844Z,9.30
2023-01-29T05:38:02.875Z,9.13
2023-01-29T05:40:30.955Z,10.07
2023-01-29T05:42:58.926Z,9.23
2023-01-29T05:45:27.319Z,10.30
2023-01-29T05:47:57.870Z,9.53
2023-01-29T05:50:26.789Z,10.70
2023-01-29T05:52:59.367Z,9.80
2023-01-29T05:55:29.393Z,9.63
2023-01-29T05:57:57.542Z,9.37
2023-01-29T06:00:25.853Z,9.10
2023-01-29T06:02:53.904Z,9.13
2023-01-29T06:05:21.898Z,9.17
2023-01-29T06:07:49.865Z,8.87
2023-01-29T06:10:20.233Z,9.03
2023-01-29T06:12:48.339Z,9.23
2023-01-29T06:15:16.520Z,9.70
2023-01-29T06:17:44.545Z,9.87
2023-01-29T06:20:13.318Z,9.73
2023-01-29T06:22:41.323Z,9.70
2023-01-29T06:25:10.348Z,10.17
2023-01-29T06:27:39.728Z,9.83
2023-01-29T06:30:09.029Z,10.00
2023-01-29T06:32:37.116Z,10.07
2023-01-29T06:35:05.766Z,9.50
2023-01-29T06:37:33.730Z,9.50
2023-01-29T06:40:01.743Z,9.63
2023-01-29T06:42:29.776Z,9.37
2023-01-29T06:44:59.352Z,9.93
2023-01-29T06:47:28.964Z,9.77
2023-01-29T06:49:56.941Z,9.27
2023-01-29T06:52:25.631Z,10.00
2023-01-29T06:54:53.595Z,9.40
2023-01-29T06:57:21.597Z,9.80
2023-01-29T06:59:49.653Z,9.57
2023-01-29T07:02:19.247Z,10.30
2023-01-29T07:04:47.293Z,9.30
2023-01-29T07:07:15.266Z,9.47
2023-01-29T07:09:44.164Z,10.63
2023-01-29T07:12:12.711Z,9.10
2023-01-29T07:14:40.783Z,10.60
2023-01-29T07:17:08.788Z,10.17
2023-01-29T07:19:38.131Z,10.17
2023-01-29T07:22:06.088Z,8.83
2023-01-29T07:24:34.179Z,10.17
2023-01-29T07:27:02.175Z,10.27
2023-01-29T07:29:30.121Z,10.20
2023-01-29T07:31:58.152Z,9.23
2023-01-29T07:34:26.204Z,9.73
2023-01-29T07:36:56.834Z,10.03
2023-01-29T07:39:24.886Z,9.80
2023-01-29T07:41:52.887Z,10.37
2023-01-29T07:44:24.154Z,10.30
2023-01-29T07:46:52.127Z,10.07
2023-01-29T07:49:20.073Z,9.60
2023-01-29T07:51:48.023Z,9.63
2023-01-29T07:54:17.378Z,11.10
2023-01-29T07:56:45.348Z,11.27
2023-01-29T07:59:13.320Z,10.17
2023-01-29T08:01:41.251Z,10.87
2023-01-29T08:04:09.261Z,11.63
2023-01-29T08:06:37.209Z,10.20
2023-01-29T08:09:05.274Z,11.07
2023-01-29T08:11:34.648Z,11.47
2023-01-29T08:14:02.646Z,10.77
2023-01-29T08:16:30.645Z,11.33
2023-01-29T08:18:58.632Z,11.37
2023-01-29T08:21:26.580Z,9.80
2023-01-29T08:23:54.734Z,10.27
2023-01-29T08:26:22.759Z,11.23
2023-01-29T08:28:52.103Z,10.17
2023-01-29T08:31:21.642Z,11.00
2023-01-29T08:33:49.760Z,10.97
2023-01-29T08:36:17.769Z,10.77
2023-01-29T08:38:45.732Z,11.10
2023-01-29T08:41:13.681Z,10.83
2023-01-29T08:43:41.679Z,10.93
2023-01-29T08:46:11.099Z,11.47
2023-01-29T08:48:39.414Z,10.97
2023-01-29T08:51:07.764Z,11.07
2023-01-29T08:53:35.979Z,12.23
2023-01-29T08:56:03.995Z,12.10
2023-01-29T08:58:32.012Z,10.77
2023-01-29T09:01:07.459Z,11.80
2023-01-29T09:03:37.324Z,11.53
2023-01-29T09:06:05.711Z,11.77
2023-01-29T09:08:34.004Z,12.90
2023-01-29T09:11:01.954Z,11.87
2023-01-29T09:13:29.933Z,11.97
2023-01-29T09:16:00.706Z,12.87
2023-01-29T09:18:28.957Z,11.83
2023-01-29T09:20:58.717Z,11.57
2023-01-29T09:23:26.744Z,12.23
2023-01-29T09:25:54.710Z,11.23
2023-01-29T09:28:22.714Z,11.50
2023-01-29T09:30:50.774Z,10.60
2023-01-29T09:33:19.565Z,11.17
2023-01-29T09:35:47.979Z,10.57
2023-01-29T09:38:17.380Z,9.73
2023-01-29T09:40:56.723Z,10.40
2023-01-29T09:43:30.945Z,10.43
2023-01-29T09:46:03.175Z,9.17
2023-01-29T09:48:35.395Z,10.07
2023-01-29T09:51:08.388Z,11.70
2023-01-29T09:53:42.284Z,10.23
2023-01-29T09:56:15.592Z,10.63
2023-01-29T09:58:44.656Z,10.77
2023-01-29T10:01:20.795Z,10.10
2023-01-29T10:04:16.462Z,11.10
2023-01-29T10:06:56.311Z,12.27
2023-01-29T10:09:43.067Z,11.07
2023-01-29T10:12:25.610Z,12.33
2023-01-29T10:15:01.883Z,11.70
2023-01-29T10:17:50.498Z,11.03
2023-01-29T10:20:35.691Z,10.87
2023-01-29T10:23:16.680Z,11.20
2023-01-29T10:25:48.287Z,11.33
2023-01-29T10:28:19.665Z,12.27
2023-01-29T10:30:50.727Z,12.33
2023-01-29T10:33:24.410Z,12.53
2023-01-29T10:35:56.879Z,12.90
2023-01-29T10:38:32.514Z,12.57
2023-01-29T10:41:15.552Z,12.40
2023-01-29T10:43:55.713Z,12.30
2023-01-29T10:46:33.404Z,12.60
2023-01-29T10:49:11.756Z,13.87
2023-01-29T10:51:52.814Z,12.60
2023-01-29T10:54:39.070Z,12.70
2023-01-29T10:57:18.758Z,13.43
2023-01-29T11:00:00.234Z,14.23
2023-01-29T11:02:28.304Z,13.33
2023-01-29T11:04:56.320Z,13.40
2023-01-29T11:07:24.571Z,13.27
2023-01-29T11:09:58.919Z,13.67
2023-01-29T11:12:33.541Z,13.17
2023-01-29T11:15:06.485Z,14.10
2023-01-29T11:17:34.656Z,13.17
2023-01-29T11:20:02.635Z,13.90
2023-01-29T11:22:31.565Z,14.87
2023-01-29T11:25:12.565Z,12.97
2023-01-29T11:27:46.489Z,14.27
2023-01-29T11:30:22.975Z,13.90
2023-01-29T11:32:58.471Z,14.60
2023-01-29T11:35:27.909Z,14.23
2023-01-29T11:38:08.456Z,13.30
2023-01-29T11:40:41.491Z,13.97
2023-01-29T11:43:32.137Z,13.23
2023-01-29T11:46:02.840Z,12.47
2023-01-29T11:48:41.776Z,12.47
2023-01-29T11:51:12.263Z,14.37
2023-01-29T11:53:42.124Z,14.13
2023-01-29T11:56:23.303Z,14.00
2023-01-29T11:58:56.318Z,13.03
2023-01-29T12:01:34.214Z,13.03
2023-01-29T12:04:02.865Z,13.37
2023-01-29T12:06:36.049Z,13.20
2023-01-29T12:09:10.760Z,12.90
2023-01-29T12:11:38.812Z,13.20
2023-01-29T12:14:30.083Z,13.70
2023-01-29T12:17:02.405Z,14.00
2023-01-29T12:19:37.312Z,13.70
2023-01-29T12:22:12.090Z,13.43
2023-01-29T12:24:49.500Z,12.20
2023-01-29T12:27:23.604Z,14.47
2023-01-29T12:30:02.056Z,13.40
2023-01-29T12:32:39.638Z,13.90
2023-01-29T12:35:13.758Z,13.70
2023-01-29T12:37:50.167Z,13.60
2023-01-29T12:40:20.700Z,13.70
2023-01-29T12:42:51.573Z,12.50
2023-01-29T12:45:23.833Z,12.60
2023-01-29T12:47:55.878Z,13.60
2023-01-29T12:50:29.002Z,13.03
2023-01-29T12:52:59.664Z,13.80
2023-01-29T12:55:31.596Z,12.20
2023-01-29T12:58:01.920Z,13.23
2023-01-29T13:00:35.024Z,13.10
2023-01-29T13:03:09.594Z,12.80
2023-01-29T13:05:44.007Z,13.57
2023-01-29T13:08:17.450Z,13.00
2023-01-29T13:10:50.598Z,13.63
2023-01-29T13:13:28.875Z,13.23
2023-01-29T13:16:01.008Z,13.10
2023-01-29T13:18:43.180Z,14.03
2023-01-29T13:21:17.197Z,12.70
2023-01-29T13:23:48.309Z,13.23
2023-01-29T13:26:20.006Z,14.40
2023-01-29T13:28:48.368Z,13.90
2023-01-29T13:31:28.461Z,13.57
2023-01-29T13:34:03.845Z,12.97
2023-01-29T13:36:32.885Z,12.70
2023-01-29T13:39:06.898Z,13.07
2023-01-29T13:41:41.601Z,14.17
2023-01-29T13:44:23.889Z,14.50
2023-01-29T13:46:57.446Z,13.20
2023-01-29T13:49:33.696Z,13.03
2023-01-29T13:52:17.107Z,12.90
2023-01-29T13:54:54.324Z,13.63
2023-01-29T13:57:50.491Z,13.80
2023-01-29T14:00:58.887Z,14.10
2023-01-29T14:04:04.905Z,13.67
2023-01-29T14:06:51.168Z,13.60
2023-01-29T14:10:04.159Z,13.80
2023-01-29T14:12:40.243Z,14.10
2023-01-29T14:15:33.555Z,13.93
2023-01-29T14:18:06.155Z,13.37
2023-01-29T14:20:46.024Z,13.87
2023-01-29T14:23:44.119Z,13.57
2023-01-29T14:26:26.106Z,13.60
2023-01-29T14:28:58.896Z,14.70
2023-01-29T14:31:39.963Z,14.07
2023-01-29T14:34:15.884Z,13.57
2023-01-29T14:36:48.164Z,13.67
2023-01-29T14:39:25.299Z,13.40
2023-01-29T14:41:53.962Z,14.37
2023-01-29T14:45:04.168Z,14.17
2023-01-29T14:48:04.114Z,13.77
2023-01-29T14:50:55.131Z,13.30
2023-01-29T14:53:47.674Z,13.37
2023-01-29T14:56:19.156Z,14.03
2023-01-29T14:58:50.044Z,13.30
2023-01-29T15:01:24.551Z,13.90
2023-01-29T15:03:54.633Z,14.13
2023-01-29T15:06:33.051Z,13.57
2023-01-29T15:09:07.876Z,13.87
2023-01-29T15:11:48.328Z,12.90
2023-01-29T15:14:24.122Z,13.57
2023-01-29T15:17:03.534Z,13.77
2023-01-29T15:19:36.337Z,13.47
2023-01-29T15:22:10.599Z,13.63
2023-01-29T15:24:41.345Z,13.60
2023-01-29T15:27:14.235Z,13.90
2023-01-29T15:29:43.747Z,13.00
2023-01-29T15:32:18.047Z,13.57
2023-01-29T15:34:46.078Z,13.77
2023-01-29T15:37:28.071Z,13.13
2023-01-29T15:39:57.562Z,13.80
2023-01-29T15:42:27.937Z,12.73
2023-01-29T15:44:56.849Z,12.97
2023-01-29T15:47:31.845Z,13.20
2023-01-29T15:50:01.208Z,13.63
2023-01-29T15:52:33.060Z,13.57
2023-01-29T15:55:06.250Z,13.73
2023-01-29T15:57:40.455Z,12.17
2023-01-29T16:00:22.211Z,13.30
2023-01-29T16:02:50.428Z,11.83
2023-01-29T16:05:22.944Z,12.70
2023-01-29T16:07:52.314Z,12.93
2023-01-29T16:10:23.822Z,12.97
2023-01-29T16:12:53.113Z,12.57
2023-01-29T16:15:33.606Z,12.87
2023-01-29T16:18:03.838Z,13.73
2023-01-29T16:20:36.475Z,13.00
2023-01-29T16:23:05.696Z,12.60
2023-01-29T16:25:38.610Z,13.50
2023-01-29T16:28:08.439Z,12.90
2023-01-29T16:30:36.487Z,13.63
2023-01-29T16:33:07.591Z,13.13
2023-01-29T16:35:36.938Z,14.87
2023-01-29T16:38:08.426Z,14.17
2023-01-29T16:40:40.823Z,14.17
2023-01-29T16:43:50.260Z,13.57
2023-01-29T16:46:26.131Z,13.83
2023-01-29T16:48:54.864Z,13.87
2023-01-29T16:51:26.347Z,13.00
2023-01-29T16:53:59.370Z,13.53
2023-01-29T16:56:31.283Z,14.27
2023-01-29T16:59:00.215Z,14.83
2023-01-29T17:01:30.404Z,14.87
2023-01-29T17:04:05.732Z,14.83
2023-01-29T17:06:34.469Z,14.67
2023-01-29T17:09:03.191Z,14.47
2023-01-29T17:11:39.595Z,15.30
2023-01-29T17:14:09.599Z,16.27
2023-01-29T17:16:47.914Z,14.53
2023-01-29T17:19:20.868Z,15.73
2023-01-29T17:21:49.045Z,15.07
2023-01-29T17:24:17.005Z,15.10
2023-01-29T17:26:46.417Z,15.73
2023-01-29T17:29:16.616Z,16.03
2023-01-29T17:31:44.690Z,14.97
2023-01-29T17:34:14.932Z,15.60
2023-01-29T17:36:43.235Z,15.97
2023-01-29T17:39:17.867Z,16.33
2023-01-29T17:41:50.752Z,16.50
2023-01-29T17:44:19.056Z,15.70
2023-01-29T17:46:47.496Z,17.03
2023-01-29T17:49:24.189Z,17.60
2023-01-29T17:51:52.798Z,16.37
2023-01-29T17:54:21.840Z,15.97
2023-01-29T17:56:52.177Z,16.80
2023-01-29T17:59:22.167Z,15.80
2023-01-29T18:01:51.037Z,16.27
2023-01-29T18:04:19.254Z,17.33
2023-01-29T18:06:50.055Z,15.73
2023-01-29T18:09:20.617Z,17.67
2023-01-29T18:11:49.294Z,17.13
2023-01-29T18:14:18.989Z,17.13
2023-01-29T18:16:47.315Z,16.97
2023-01-29T18:19:20.238Z,16.77
2023-01-29T18:21:48.452Z,16.43
2023-01-29T18:24:16.583Z,16.33
2023-01-29T18:26:44.743Z,15.67
2023-01-29T18:29:12.745Z,15.97
2023-01-29T18:31:42.146Z,15.37
2023-01-29T18:34:10.222Z,15.50
2023-01-29T18:36:38.391Z,16.50
2023-01-29T18:39:06.383Z,16.00
2023-01-29T18:41:34.952Z,16.10
2023-01-29T18:44:02.995Z,15.23
2023-01-29T18:46:31.015Z,15.37
2023-01-29T18:49:00.428Z,16.07
2023-01-29T18:51:28.403Z,15.27
2023-01-29T18:53:56.395Z,15.47
2023-01-29T18:56:25.376Z,15.10
2023-01-29T18:58:56.077Z,16.37
2023-01-29T19:01:24.699Z,15.17
2023-01-29T19:03:52.976Z,15.53
2023-01-29T19:06:22.356Z,15.97
2023-01-29T19:08:50.321Z,15.50
2023-01-29T19:11:18.475Z,15.60
2023-01-29T19:13:47.961Z,15.70
2023-01-29T19:16:15.945Z,15.60
2023-01-29T19:18:43.992Z,16.23
2023-01-29T19:21:14.424Z,15.83
2023-01-29T19:23:44.854Z,15.23
2023-01-29T19:26:13.408Z,16.10
2023-01-29T19:28:41.850Z,14.90
2023-01-29T19:31:10.935Z,16.23
2023-01-29T19:33:39.288Z,17.43
2023-01-29T19:36:07.968Z,17.27
2023-01-29T19:38:38.711Z,16.80
2023-01-29T19:41:08.146Z,16.27
2023-01-29T19:43:38.160Z,16.37
2023-01-29T19:46:07.592Z,16.57
2023-01-29T19:48:35.739Z,17.83
2023-01-29T19:51:08.402Z,17.13
2023-01-29T19:53:37.789Z,16.60
2023-01-29T19:56:09.365Z,15.33
2023-01-29T19:58:37.732Z,16.80
2023-01-29T20:01:08.349Z,16.47
2023-01-29T20:03:38.049Z,17.23
2023-01-29T20:06:07.525Z,17.13
2023-01-29T20:08:36.426Z,21.00
2023-01-29T20:11:05.560Z,21.83
2023-01-29T20:13:35.146Z,22.13
2023-01-29T20:16:05.429Z,21.13
2023-01-29T20:18:34.138Z,21.17
2023-01-29T20:21:08.141Z,23.33
2023-01-29T20:23:38.593Z,22.47
2023-01-29T20:26:07.628Z,23.23
2023-01-29T20:28:37.379Z,22.57
2023-01-29T20:31:06.298Z,21.50
2023-01-29T20:33:35.065Z,22.73
2023-01-29T20:36:04.874Z,22.20
2023-01-29T20:38:34.567Z,23.57
2023-01-29T20:41:07.114Z,21.73
2023-01-29T20:43:36.930Z,20.13
2023-01-29T20:46:05.989Z,21.17
2023-01-29T20:48:34.325Z,20.63
2023-01-29T20:51:08.143Z,20.57
2023-01-29T20:53:36.519Z,19.60
2023-01-29T20:56:05.322Z,19.53
2023-01-29T20:58:33.623Z,18.83
2023-01-29T21:01:07.891Z,18.37
2023-01-29T21:03:35.888Z,18.33
2023-01-29T21:06:03.867Z,17.47
2023-01-29T21:08:32.005Z,17.43
2023-01-29T21:11:00.019Z,17.60
2023-01-29T21:13:28.048Z,16.57
2023-01-29T21:15:56.018Z,17.53
2023-01-29T21:18:26.389Z,20.70
2023-01-29T21:20:55.372Z,23.00
2023-01-29T21:23:23.785Z,23.23
2023-01-29T21:25:51.882Z,22.43
2023-01-29T21:28:19.888Z,21.13
2023-01-29T21:30:49.131Z,20.80
2023-01-29T21:33:17.845Z,21.37
2023-01-29T21:35:47.218Z,21.90
2023-01-29T21:38:15.220Z,21.93
2023-01-29T21:40:43.194Z,19.33
2023-01-29T21:43:13.135Z,16.60
2023-01-29T21:45:41.633Z,17.07
2023-01-29T21:48:10.498Z,17.80
2023-01-29T21:50:39.271Z,17.73
2023-01-29T21:53:08.642Z,18.17
2023-01-29T21:55:36.628Z,17.20
2023-01-29T21:58:04.651Z,17.17
2023-01-29T22:00:32.692Z,17.10
2023-01-29T22:03:00.816Z,17.30
2023-01-29T22:05:29.324Z,17.97
2023-01-29T22:07:57.405Z,18.43
2023-01-29T22:10:27.566Z,16.60
2023-01-29T22:12:55.928Z,17.07
2023-01-29T22:15:24.227Z,16.40
2023-01-29T22:17:52.429Z,17.00
2023-01-29T22:20:20.765Z,17.27
2023-01-29T22:22:48.784Z,16.97
2023-01-29T22:25:20.088Z,17.77
2023-01-29T22:27:49.593Z,18.70
2023-01-29T22:30:18.514Z,16.23
2023-01-29T22:32:46.690Z,16.87
2023-01-29T22:35:14.786Z,17.20
2023-01-29T22:37:42.787Z,17.40
2023-01-29T22:40:12.047Z,17.23
2023-01-29T22:42:40.044Z,18.27
2023-01-29T22:45:10.761Z,15.50
2023-01-29T22:47:39.269Z,16.50
2023-01-29T22:50:08.758Z,15.47
2023-01-29T22:52:39.458Z,16.40
2023-01-29T22:55:09.735Z,15.40
2023-01-29T22:57:38.264Z,15.73
2023-01-29T23:00:08.745Z,17.17
2023-01-29T23:02:38.389Z,17.67
2023-01-29T23:05:07.506Z,17.43
2023-01-29T23:07:35.698Z,16.40
2023-01-29T23:10:03.681Z,15.53
2023-01-29T23:12:31.703Z,15.93
2023-01-29T23:14:59.746Z,15.90
2023-01-29T23:17:27.770Z,19.10
2023-01-29T23:19:57.090Z,20.07
2023-01-29T23:22:25.113Z,18.10
2023-01-29T23:24:53.139Z,17.33
2023-01-29T23:27:20.169Z,19.17
2023-01-29T23:29:49.479Z,17.87
2023-01-29T23:32:20.034Z,18.90
2023-01-29T23:34:48.050Z,19.77
2023-01-29T23:37:17.398Z,20.73
2023-01-29T23:39:45.424Z,18.83
2023-01-29T23:42:13.422Z,19.30
2023-01-29T23:44:41.412Z,21.00
2023-01-29T23:47:10.030Z,20.03
2023-01-29T23:49:38.447Z,19.97
2023-01-29T23:52:06.692Z,20.27
2023-01-29T23:54:36.093Z,19.73
2023-01-29T23:57:04.112Z,20.53
2023-01-29T23:59:32.060Z,18.97
